Tecumseh, Missouri
Current Conditions -  °F | °C
As of 4:53 AM on Friday 19 Dec 2014 (Local Time) from KBPK Reporting Station
Haze Haze  
Wind Chill: 37°   Ceiling: 500
Heat Index: 37°   Visibility: 6mi
Dew Point: 36°   Wind: 3mph
Humidity: 96%   Direction: NA
Pressure: 30.2"   Gusts: NA
Location:  36.59°N, 92.29°W
Report Text: KBPK 191053Z AUTO VRB03KT 6SM BR OVC005 03/02 A3020 RMK AO2 SLP233 T00280022
Loading
Personal Weather Stations






























Interactive Weather Map New forecast layout! Learn more

10-Day Weather Forecast

Advertisements
Track Severe Weather on mobile